Latest Coastal Weather Observations for Lancelin (Defence)

IDW60701

Issued at 11:13 am WST Saturday 5 December 2020 (issued every 10 minutes, with the page automatically refreshed every 10 minutes)

About coastal observations | Map of coastal stations | Coastal observations for WA | Marine services | Other Formats
Station Details ID: 009280 Name: LANCELIN (DEFENCE) Lat: -30.84 Lon: 115.23 Height: 3.41 m
Data from the previous 72 hours. | See also: Recent months at Lancelin (Defence)
Date/Time
WST
Wind Sea
Height
m
Swell Vis
km
Cloud Weather Temp
°C
Press
MSL
hPa
Rain since
9am
mm
Dir  Spd
kts
Gust
kts
Height
m
Period
s
Dir
05/11:00am S 12 18 - - - - - - - 20.8 1020.4 0.0
05/10:30am S 13 17 - - - - - - - 20.4 1020.5 0.0
05/10:00am S 12 17 - - - - - - - 20.4 1020.7 0.0
05/09:30am SSE 11 15 - - - - - - - 20.9 1020.9 0.0
05/09:00am SSE 10 16 - - - - - - - 19.5 1020.9 0.0
05/08:30am SSE 10 18 - - - - - - - 19.4 1020.8 0.0
05/08:00am SSE 10 16 - - - - - - - 18.8 1020.5 0.0
05/07:30am SE 8 12 - - - - - - - 18.9 1020.3 0.0
05/07:00am SE 8 11 - - - - - - - 18.1 1020.1 0.0
05/06:30am ESE 6 10 - - - - - - - 17.1 1019.6 0.0
05/06:00am ESE 7 13 - - - - - - - 16.8 1019.4 0.0
05/05:30am ESE 7 9 - - - - - - - 16.9 1019.1 0.0
05/05:00am SE 6 9 - - - - - - - 17.3 1018.9 0.0
05/04:30am S 12 17 - - - - - - - 18.4 1018.5 0.0
05/04:00am SSE 9 16 - - - - - - - 18.1 1018.5 0.0
05/03:30am S 12 17 - - - - - - - 18.4 1018.4 0.0
05/03:00am S 11 17 - - - - - - - 18.5 1018.2 0.0
05/02:30am S 13 18 - - - - - - - 18.6 1018.0 0.0
05/02:00am S 14 20 - - - - - - - 18.7 1018.1 0.0
05/01:30am S 10 15 - - - - - - - 18.8 1018.0 0.0
05/01:00am S 11 15 - - - - - - - 19.0 1017.9 0.0
05/12:30am S 13 19 - - - - - - - 19.2 1018.1 0.0
05/12:00am S 9 14 - - - - - - - 19.1 1018.1 0.0
 
Date/Time
WST
Wind Sea
Height
m
Swell Vis
km
Cloud Weather Temp
°C
Press
MSL
hPa
Rain since
9am
mm
Dir  Spd
kts
Gust
kts
Height
m
Period
s
Dir
04/11:30pm S 12 16 - - - - - - - 19.5 1018.1 0.0
04/11:00pm S 13 19 - - - - - - - 19.2 1018.2 0.0
04/10:30pm S 11 16 - - - - - - - 19.3 1018.1 0.0
04/10:00pm S 10 15 - - - - - - - 18.9 1017.9 0.0
04/09:30pm S 13 19 - - - - - - - 19.2 1017.9 0.0
04/09:00pm S 11 16 - - - - - - - 19.1 1017.7 0.0
04/08:30pm S 12 18 - - - - - - - 19.3 1017.5 0.0
04/08:00pm S 12 18 - - - - - - - 19.3 1017.2 0.0
04/07:30pm S 13 19 - - - - - - - 19.2 1016.9 0.0
04/07:00pm S 12 17 - - - - - - - 19.5 1016.8 0.0
04/06:30pm S 11 16 - - - - - - - 19.9 1016.6 0.0
04/06:00pm SSW 13 19 - - - - - - - 20.2 1016.4 0.0
04/05:30pm S 15 19 - - - - - - - 20.5 1016.1 0.0
04/05:00pm SSW 14 20 - - - - - - - 20.6 1015.9 0.0
04/04:30pm SSW 13 18 - - - - - - - 20.4 1015.7 0.0
04/04:00pm SW 12 17 - - - - - - - 20.5 1015.7 0.0
04/03:30pm SSW 10 14 - - - - - - - 21.2 1015.7 0.0
04/03:00pm SW 11 15 - - - - - - - 21.2 1015.8 0.0
04/02:30pm SW 11 15 - - - - - - - 22.0 1015.9 0.0
04/02:00pm SSW 10 14 - - - - - - - 21.9 1015.8 0.0
04/01:30pm SSW 12 16 - - - - - - - 22.0 1015.9 0.0
04/01:00pm SSW 11 16 - - - - - - - 21.8 1016.0 0.0
04/12:30pm SSW 11 15 - - - - - - - 22.3 1016.0 0.0
04/12:00pm SSW 12 16 - - - - - - - 21.5 1016.2 0.0
04/11:30am SW 11 15 - - - - - - - 21.7 1016.2 0.0
04/11:00am SW 12 17 - - - - - - - 20.9 1016.3 0.0
04/10:30am SW 11 14 - - - - - - - 21.1 1016.2 0.0
04/10:00am SW 9 13 - - - - - - - 21.6 1016.2 0.0
04/09:30am SW 10 15 - - - - - - - 20.9 1016.4 0.0
04/09:00am SW 10 15 - - - - - - - 20.7 1016.3 0.0
04/08:30am SSW 11 14 - - - - - - - 20.7 1016.2 0.0
04/08:00am SSW 10 14 - - - - - - - 20.8 1016.0 0.0
04/07:30am S 11 15 - - - - - - - 20.2 1015.6 0.0
04/07:00am SW 12 17 - - - - - - - 19.8 1015.6 0.0
04/06:30am SSW 12 17 - - - - - - - 19.3 1015.3 0.0
04/06:00am SSW 13 17 - - - - - - - 18.9 1014.9 0.0
04/05:30am SSW 14 20 - - - - - - - 18.8 1014.7 0.0
04/05:00am S 13 19 - - - - - - - 18.8 1014.4 0.0
04/04:30am SSW 14 19 - - - - - - - 18.7 1014.1 0.0
04/04:00am SSW 15 21 - - - - - - - 18.5 1013.7 0.0
04/03:30am S 14 20 - - - - - - - 18.4 1013.6 0.0
04/03:00am SSW 15 21 - - - - - - - 18.4 1013.4 0.0
04/02:30am S 14 20 - - - - - - - 18.5 1013.2 0.0
04/02:00am S 13 20 - - - - - - - 18.4 1013.2 0.0
04/01:30am SSW 15 22 - - - - - - - 18.5 1013.3 0.0
04/01:00am SSW 15 21 - - - - - - - 18.5 1013.4 0.0
04/12:30am S 14 19 - - - - - - - 18.8 1013.5 0.0
04/12:00am SSW 16 21 - - - - - - - 18.7 1013.6 0.0
 
Date/Time
WST
Wind Sea
Height
m
Swell Vis
km
Cloud Weather Temp
°C
Press
MSL
hPa
Rain since
9am
mm
Dir  Spd
kts
Gust
kts
Height
m
Period
s
Dir
03/11:30pm SSW 15 21 - - - - - - - 18.7 1013.9 0.0
03/11:00pm S 15 20 - - - - - - - 18.7 1013.8 0.0
03/10:30pm S 13 19 - - - - - - - 18.9 1013.5 0.0
03/10:00pm S 15 20 - - - - - - - 19.0 1013.5 0.0
03/09:30pm S 13 18 - - - - - - - 19.0 1013.5 0.0
03/09:00pm S 14 18 - - - - - - - 19.1 1013.2 0.0
03/08:30pm S 13 19 - - - - - - - 19.3 1013.0 0.0
03/08:00pm S 13 18 - - - - - - - 19.4 1012.9 0.0
03/07:30pm S 12 17 - - - - - - - 19.4 1012.4 0.0
03/07:00pm S 12 16 - - - - - - - 19.6 1012.1 0.0
03/06:30pm S 13 17 - - - - - - - 19.8 1012.0 0.0
03/06:00pm S 14 19 - - - - - - - 20.5 1011.8 0.0
03/05:30pm S 15 22 - - - - - - - 20.6 1011.7 0.0
03/05:00pm S 15 21 - - - - - - - 21.0 1011.7 0.0
03/04:30pm S 15 20 - - - - - - - 21.3 1011.7 0.0
03/04:00pm S 15 20 - - - - - - - 21.7 1011.5 0.0
03/03:30pm S 12 18 - - - - - - - 22.1 1011.7 0.0
03/03:00pm S 13 17 - - - - - - - 22.0 1011.9 0.0
03/02:30pm S 12 17 - - - - - - - 22.7 1011.9 0.0
03/02:00pm S 12 16 - - - - - - - 22.4 1012.1 0.0
03/01:30pm S 12 17 - - - - - - - 22.8 1012.2 0.0
03/01:00pm S 11 17 - - - - - - - 22.4 1012.5 0.0
03/12:30pm S 12 17 - - - - - - - 22.5 1012.8 0.0
03/12:00pm S 11 16 - - - - - - - 23.2 1013.0 0.0
03/11:30am S 13 17 - - - - - - - 22.2 1013.2 0.0
03/11:00am S 12 16 - - - - - - - 22.2 1013.4 0.0
03/10:30am S 13 17 - - - - - - - 21.5 1013.5 0.0
03/10:00am SSE 11 16 - - - - - - - 21.6 1013.7 0.0
03/09:30am S 11 15 - - - - - - - 21.2 1014.0 0.0
03/09:00am S 10 13 - - - - - - - 20.3 1014.2 0.0
03/08:30am S 9 12 - - - - - - - 19.5 1014.3 0.0
03/08:00am S 8 11 - - - - - - - 19.1 1014.3 0.0
03/07:30am SSE 8 11 - - - - - - - 18.6 1014.4 0.0
03/07:00am SSE 9 12 - - - - - - - 17.2 1014.7 0.0
03/06:30am SE 6 8 - - - - - - - 16.1 1014.7 0.0
03/06:00am SE 5 7 - - - - - - - 14.7 1014.6 0.0
03/05:30am SE 5 6 - - - - - - - 14.0 1014.5 0.0
03/05:00am ESE 5 6 - - - - - - - 14.4 1014.3 0.0
03/04:30am ESE 6 7 - - - - - - - 14.7 1014.2 0.0
03/04:00am ESE 5 7 - - - - - - - 14.6 1014.3 0.0
03/03:30am ESE 5 6 - - - - - - - 14.8 1014.5 0.0
03/03:00am ESE 5 7 - - - - - - - 15.3 1014.4 0.0
03/02:30am SE 10 17 - - - - - - - 17.2 1014.6 0.0
03/02:00am SSE 14 20 - - - - - - - 18.2 1014.8 0.0
03/01:30am SSE 15 21 - - - - - - - 18.3 1015.0 0.0
03/01:00am SSE 14 19 - - - - - - - 18.3 1015.2 0.0
03/12:30am SSE 14 20 - - - - - - - 18.2 1015.5 0.0
03/12:00am SSE 15 20 - - - - - - - 18.3 1015.8 0.0
 
Date/Time
WST
Wind Sea
Height
m
Swell Vis
km
Cloud Weather Temp
°C
Press
MSL
hPa
Rain since
9am
mm
Dir  Spd
kts
Gust
kts
Height
m
Period
s
Dir
02/11:30pm SSE 14 21 - - - - - - - 18.3 1016.0 0.0
02/11:00pm SSE 12 16 - - - - - - - 18.4 1016.2 0.0
02/10:30pm SSE 14 20 - - - - - - - 18.3 1016.4 0.0
02/10:00pm SSE 14 20 - - - - - - - 18.5 1016.6 0.0
02/09:30pm SSE 14 21 - - - - - - - 18.5 1016.7 0.0
02/09:00pm SSE 14 19 - - - - - - - 18.6 1016.6 0.0
02/08:30pm SSE 15 21 - - - - - - - 18.8 1016.5 0.0
02/08:00pm S 16 22 - - - - - - - 19.0 1016.6 0.0
02/07:30pm S 14 22 - - - - - - - 19.1 1016.5 0.0
02/07:00pm S 14 21 - - - - - - - 19.3 1016.3 0.0
02/06:30pm S 16 24 - - - - - - - 19.7 1016.2 0.0
02/06:00pm S 17 22 - - - - - - - 20.1 1016.1 0.0
02/05:30pm S 18 24 - - - - - - - 20.3 1016.0 0.0
02/05:00pm S 17 22 - - - - - - - 20.7 1015.9 0.0
02/04:30pm S 15 21 - - - - - - - 21.1 1015.7 0.0
02/04:00pm S 14 19 - - - - - - - 21.8 1015.9 0.0
02/03:30pm S 14 18 - - - - - - - 21.7 1016.0 0.0
02/03:00pm S 14 21 - - - - - - - 21.9 1016.2 0.0
02/02:30pm S 14 19 - - - - - - - 22.0 1016.3 0.0
02/02:00pm S 14 18 - - - - - - - 22.4 1016.4 0.0
02/01:30pm S 13 18 - - - - - - - 22.4 1016.6 0.0
02/01:00pm S 12 17 - - - - - - - 22.9 1016.7 0.0
02/12:30pm S 12 17 - - - - - - - 22.8 1016.9 0.0
02/12:00pm S 11 15 - - - - - - - 22.6 1017.2 0.0
02/11:30am S 9 13 - - - - - - - 23.2 1017.2 0.0

Other formats

Comma delimited format used in spreadsheet applications
http://www.bom.gov.au/fwo/IDW60701/IDW60701.95609.axf

JavaScript Object Notation format (JSON) in row-major order
http://www.bom.gov.au/fwo/IDW60701/IDW60701.95609.json

Data quality

Most of these data are generated automatically and are frequently updated. Quality checks on data are not normally performed. It is possible for incorrect values to appear. Refer to information at About Latest Weather Observations and please check the disclaimer before using these data.